Flight Track Log - Related Links

Times and Time Zones

All times are in EDT time to prevent confusion due to time zone crossing. See the UCA3597 flight status page for this flight to view local times or setup timezone preferences in your user account.

Time Position Orientation Groundspeed Altitude Reporting Facility
EDT Latitude Longitude Course Direction KTS MPH feet Rate Location/Type
Tue 05:37:00 PM 39.2983 -77.3078 19° North  Level Estimated
Tue 05:38:00 PM 39.3568 -77.2823 19° North  Level Estimated
Tue 05:39:00 PM 39.4153 -77.2567 19° North  Level Estimated
Tue 05:40:00 PM 39.4737 -77.2311 19° North  Level Estimated
Tue 05:41:00 PM 39.5322 -77.2055 19° North  Level Estimated
Tue 05:42:00 PM 39.5906 -77.1798 19° North  Level Estimated
Tue 05:43:00 PM 39.6490 -77.1541 19° North  Level Estimated
Tue 05:44:00 PM 39.7075 -77.1283 19° North  Level Estimated
Tue 05:45:00 PM 39.7659 -77.1025 19° North  Level Estimated
Tue 05:46:00 PM 39.8243 -77.0767 19° North  Level Estimated
Tue 05:47:00 PM 39.8827 -77.0508 19° North  Level Estimated
Tue 05:48:00 PM 39.9411 -77.0248 19° North  Level Estimated
Tue 05:49:00 PM 39.9995 -76.9988 19° North  Level Estimated
Tue 05:50:00 PM 40.0579 -76.9728 19° North  Level Estimated
Tue 05:51:00 PM 40.1163 -76.9467 19° North  Level Estimated
Tue 05:52:00 PM 40.1747 -76.9206 19° North  Level Estimated
Tue 05:53:00 PM 40.2331 -76.8944 19° North  Level Estimated
Tue 05:54:00 PM 40.2915 -76.8682 19° North  Level Estimated
Tue 05:55:00 PM 40.3498 -76.8420 19° North  Level Estimated
Tue 05:56:00 PM 40.4082 -76.8157 19° North  Level Estimated
Tue 05:57:00 PM 40.4665 -76.7893 19° North  Level Estimated
Tue 05:58:00 PM 40.5249 -76.7629 19° North  Level Estimated
Tue 05:59:00 PM 40.5832 -76.7365 19° North  Level Estimated
Tue 06:00:00 PM 40.6416 -76.7100 19° North  Level Estimated
Tue 06:01:00 PM 40.6999 -76.6835 19° North  Level Estimated
Tue 06:02:00 PM 40.7582 -76.6569 19° North  Level Estimated
Tue 06:03:00 PM 40.8165 -76.6303 19° North  Level Estimated
Tue 06:04:00 PM 40.8748 -76.6036 19° North  Level Estimated
Tue 06:05:00 PM 40.9332 -76.5769 19° North  Level Estimated
Tue 06:06:00 PM 40.9915 -76.5501 19° North  Level Estimated
Tue 06:07:00 PM 41.0497 -76.5233 19° North  Level Estimated
Tue 06:08:00 PM 41.1080 -76.4965 19° North  Level Estimated
Tue 06:09:00 PM 41.1663 -76.4695 19° North  Level Estimated
Tue 06:10:00 PM 41.2246 -76.4426 19° North  Level Estimated
Tue 06:11:00 PM 41.2828 -76.4156 19° North  Level Estimated
Tue 06:12:00 PM 41.3411 -76.3885 19° North  Level Estimated
Tue 06:13:00 PM 41.3994 -76.3614 19° North  Level Estimated
Tue 06:14:00 PM 41.4576 -76.3343 19° North  Level Estimated
Tue 06:15:00 PM 41.5159 -76.3071 19° North  Level Estimated
Tue 06:16:00 PM 41.5741 -76.2798 19° North  Level Estimated
Tue 06:17:00 PM 41.6323 -76.2525 19° North  Level Estimated
Tue 06:18:00 PM 41.6906 -76.2252 19° North  Level Estimated
Tue 06:19:00 PM 41.7488 -76.1978 19° North  Level Estimated
Tue 06:20:00 PM 41.8070 -76.1703 19° North  Level Estimated
Tue 06:21:00 PM 41.8652 -76.1429 19° North  Level Estimated
Tue 06:22:00 PM 41.9234 -76.1153 19° North  Level Estimated
Tue 06:23:00 PM 41.9816 -76.0877 19° North  Level Estimated
Tue 06:24:00 PM 42.0397 -76.0601 19° North  Level Estimated
Tue 06:25:00 PM 42.0979 -76.0324 19° North  Level Estimated
Tue 06:26:00 PM 42.1561 -76.0046 19° North  Level Estimated
Tue 06:27:00 PM 42.2084 -75.9796 19° North  Level Estimated
Tue 06:28:00 PM 42.2084 -75.9796 35° Northeast  Level Estimated
Tue 06:29:00 PM 42.2084 -75.9796 35° Northeast  Level Estimated
Tue 06:30:00 PM 42.2084 -75.9796 35° Northeast  Level Estimated
Tue 06:31:00 PM 42.2084 -75.9796 35° Northeast  Level Estimated
Tue 06:32:00 PM 42.2084 -75.9796 35° Northeast  Level Estimated
Tue 06:33:00 PM 42.2084 -75.9796 35° Northeast  Level Estimated
Tue 06:34:00 PM 42.2084 -75.9796 35° Northeast  Level Estimated
Tue 06:35:00 PM 42.2084 -75.9796 35° Northeast  Level Estimated
Tue 06:36:00 PM 42.2084 -75.9796 35° Northeast  Level Estimated
Tue 06:37:00 PM 42.2084 -75.9796 35° Northeast  Level Estimated
Tue 06:38:00 PM 42.2084 -75.9796 35° Northeast  Level Estimated
Tue 06:39:00 PM 42.2084 -75.9796 35° Northeast  Level Estimated
Tue 06:40:00 PM 42.2084 -75.9796 35° Northeast  Level Estimated
Tue 06:41:00 PM 42.2084 -75.9796 35° Northeast  Level Estimated
Tue 06:42:00 PM 42.2084 -75.9796 35° Northeast  Level Estimated
Tue 06:43:00 PM 42.2084 -75.9796 35° Northeast  Level Estimated

Login

Don't have an account? Register now (free) for customized features, flight alerts, and more!